Time;durP1;ratioP1;P1;durP2;ratioP2;P2;SDS_P1;SDS_P2;PMS_P1;PMS_P2;Temp;Humidity;BMP_temperature;BMP_pressure;BME280_temperature;BME280_humidity;BME280_pressure;Samples;Min_cycle;Max_cycle;Signal;HPM_P1;HPM_P2
2023/01/07 00:01:06;;;;;;;1.90;1.30;;;9.10;99.90;;;;;;5046900;28;20630;-68
2023/01/07 00:03:33;;;;;;;1.07;0.73;;;9.10;99.90;;;;;;5047772;28;20622;-67
2023/01/07 00:06:01;;;;;;;2.87;0.83;;;9.10;99.90;;;;;;5048160;28;20658;-68
2023/01/07 00:08:29;;;;;;;1.00;1.00;;;9.10;99.90;;;;;;5048144;28;20635;-68
2023/01/07 00:10:56;;;;;;;1.00;0.53;;;9.10;99.90;;;;;;5047656;28;21222;-67
2023/01/07 00:13:23;;;;;;;1.93;1.50;;;9.10;99.90;;;;;;5047346;28;20749;-68
2023/01/07 00:15:57;;;;;;;1.73;1.40;;;9.10;99.90;;;;;;5047960;28;21068;-67
2023/01/07 00:18:25;;;;;;;0.77;0.77;;;9.10;99.90;;;;;;5047684;28;20999;-67
2023/01/07 00:20:55;;;;;;;1.17;0.70;;;9.10;99.90;;;;;;5047630;28;21090;-68
2023/01/07 00:23:23;;;;;;;1.23;1.03;;;9.10;99.90;;;;;;5047796;28;21200;-67
2023/01/07 00:25:50;;;;;;;2.40;1.17;;;9.10;99.90;;;;;;5047873;28;20630;-68
2023/01/07 00:28:17;;;;;;;3.20;1.80;;;9.10;99.90;;;;;;5047849;28;20730;-67
2023/01/07 00:30:44;;;;;;;1.00;0.70;;;9.10;99.90;;;;;;5046582;28;20627;-71
2023/01/07 00:33:14;;;;;;;0.77;0.77;;;9.10;99.90;;;;;;5047353;28;21211;-69
2023/01/07 00:35:43;;;;;;;1.50;1.20;;;9.10;99.90;;;;;;5048061;28;20749;-67
2023/01/07 00:38:11;;;;;;;1.50;1.23;;;9.00;99.90;;;;;;5047857;28;20615;-68
2023/01/07 00:40:38;;;;;;;3.23;1.43;;;9.10;99.90;;;;;;5047200;28;20627;-67
2023/01/07 00:43:05;;;;;;;1.67;1.13;;;9.10;99.90;;;;;;5043559;28;20721;-67
2023/01/07 00:45:33;;;;;;;1.30;1.20;;;9.10;99.90;;;;;;5048262;28;20894;-69
2023/01/07 00:48:02;;;;;;;2.17;0.87;;;9.10;99.90;;;;;;5048003;28;20702;-67
2023/01/07 00:50:32;;;;;;;0.90;0.90;;;9.10;99.90;;;;;;5048173;28;20685;-67
2023/01/07 00:52:59;;;;;;;2.43;1.47;;;9.00;99.90;;;;;;5046866;28;21156;-67
2023/01/07 00:55:26;;;;;;;0.80;0.80;;;9.00;99.90;;;;;;5048009;28;21092;-67
2023/01/07 00:57:54;;;;;;;1.00;0.90;;;;;;;;;;5047998;28;20627;-67
2023/01/07 01:00:22;;;;;;;1.77;1.67;;;9.00;99.90;;;;;;5047651;28;20646;-67
2023/01/07 01:02:50;;;;;;;1.00;0.97;;;9.00;99.90;;;;;;5046782;28;20680;-67
2023/01/07 01:05:19;;;;;;;0.70;0.70;;;9.00;99.90;;;;;;5047505;28;20745;-68
2023/01/07 01:07:49;;;;;;;1.50;0.90;;;9.00;99.90;;;;;;5047478;28;20690;-68
2023/01/07 01:10:19;;;;;;;1.27;0.83;;;9.00;99.90;;;;;;5047463;28;21242;-67
2023/01/07 01:12:48;;;;;;;0.80;0.80;;;9.00;99.90;;;;;;5047068;28;21524;-67
2023/01/07 01:15:15;;;;;;;0.97;0.93;;;9.20;99.90;;;;;;5047071;28;20649;-67
2023/01/07 01:17:43;;;;;;;1.07;1.07;;;8.90;99.90;;;;;;5047686;28;20720;-68
2023/01/07 01:20:13;;;;;;;0.93;0.93;;;9.00;99.90;;;;;;5047446;28;20702;-67
2023/01/07 01:22:40;;;;;;;15.70;1.70;;;9.00;99.90;;;;;;5046596;28;20614;-67
2023/01/07 01:25:09;;;;;;;1.40;1.30;;;9.00;99.90;;;;;;5047432;28;20633;-67
2023/01/07 01:27:36;;;;;;;1.33;1.23;;;9.00;99.90;;;;;;5047092;28;20673;-67
2023/01/07 01:30:03;;;;;;;1.87;0.97;;;8.90;99.90;;;;;;5047660;28;20961;-67
2023/01/07 01:32:30;;;;;;;0.43;0.43;;;8.90;99.90;;;;;;5045588;28;20984;-67
2023/01/07 01:34:57;;;;;;;1.20;1.10;;;9.00;99.90;;;;;;5047553;28;20730;-67
2023/01/07 01:37:24;;;;;;;1.03;1.03;;;9.00;99.90;;;;;;5047550;28;20681;-68
2023/01/07 01:39:51;;;;;;;1.13;1.03;;;9.00;99.90;;;;;;5047153;28;20626;-67
2023/01/07 01:42:24;;;;;;;1.10;1.00;;;8.90;99.90;;;;;;5043706;28;20628;-67
2023/01/07 01:44:53;;;;;;;1.20;1.10;;;9.00;99.90;;;;;;5041640;28;20631;-67
2023/01/07 01:47:25;;;;;;;1.43;1.07;;;9.00;99.90;;;;;;5047504;28;20658;-67
2023/01/07 01:49:57;;;;;;;1.10;1.03;;;9.00;99.90;;;;;;5047665;28;20630;-67
2023/01/07 01:52:29;;;;;;;0.90;0.43;;;8.90;99.90;;;;;;5046899;28;20626;-68
2023/01/07 01:54:58;;;;;;;2.37;1.10;;;8.90;99.90;;;;;;5047113;28;20998;-67
2023/01/07 01:57:28;;;;;;;0.77;0.77;;;8.90;99.90;;;;;;5046589;28;20687;-69
2023/01/07 01:59:56;;;;;;;1.23;1.13;;;8.90;99.90;;;;;;5033105;28;20634;-67
2023/01/07 02:02:32;;;;;;;1.00;0.90;;;8.90;99.90;;;;;;5045256;28;20627;-69
2023/01/07 02:04:59;;;;;;;1.50;1.40;;;8.90;99.90;;;;;;5045167;28;20626;-67
2023/01/07 02:07:26;;;;;;;0.60;0.60;;;8.90;99.90;;;;;;5046352;28;20772;-68
2023/01/07 02:09:59;;;;;;;1.47;0.67;;;8.90;99.90;;;;;;5046944;28;21087;-68
2023/01/07 02:12:57;;;;;;;0.70;0.70;;;8.90;99.90;;;;;;5046027;28;20669;-68
2023/01/07 02:15:32;;;;;;;1.63;0.60;;;8.90;99.90;;;;;;5047381;28;20628;-68
2023/01/07 02:18:13;;;;;;;0.60;0.60;;;8.90;99.90;;;;;;5046862;28;20622;-67
2023/01/07 02:20:54;;;;;;;0.83;0.83;;;8.80;99.90;;;;;;5047604;28;20704;-67
2023/01/07 02:23:54;;;;;;;0.60;0.60;;;8.80;99.90;;;;;;5047018;28;20627;-67
2023/01/07 02:26:49;;;;;;;1.27;0.50;;;8.80;99.90;;;;;;5026803;28;20619;-67
2023/01/07 02:29:46;;;;;;;1.43;0.60;;;8.80;99.90;;;;;;5041235;28;20630;-67
2023/01/07 02:32:39;;;;;;;2.10;1.13;;;8.80;99.90;;;;;;5024888;28;20627;-69
2023/01/07 02:35:20;;;;;;;0.50;0.47;;;8.80;99.90;;;;;;5027448;28;20631;-67
2023/01/07 02:37:56;;;;;;;0.83;0.70;;;8.80;99.90;;;;;;5042212;28;20671;-67
2023/01/07 02:40:34;;;;;;;0.73;0.50;;;8.80;99.90;;;;;;5039408;28;20656;-67
2023/01/07 02:43:12;;;;;;;2.20;1.10;;;8.80;99.90;;;;;;5049380;28;21046;-67
2023/01/07 02:45:47;;;;;;;0.83;0.80;;;8.80;99.90;;;;;;5050621;28;20598;-67
2023/01/07 02:48:19;;;;;;;1.17;0.67;;;8.80;99.90;;;;;;5049834;28;20669;-68
2023/01/07 02:50:47;;;;;;;1.17;0.50;;;8.80;99.90;;;;;;5050124;28;20622;-67
2023/01/07 02:53:18;;;;;;;1.03;0.73;;;8.70;99.90;;;;;;5050428;28;20630;-67
2023/01/07 02:56:00;;;;;;;0.60;0.60;;;8.90;99.90;;;;;;5050290;28;20614;-68
2023/01/07 02:58:56;;;;;;;0.67;0.63;;;8.90;99.90;;;;;;5047593;28;20717;-67
2023/01/07 03:01:43;;;;;;;0.70;0.70;;;8.90;99.90;;;;;;5029928;28;21060;-68
2023/01/07 03:04:27;;;;;;;0.80;0.60;;;8.90;99.90;;;;;;5030046;28;20619;-67
2023/01/07 03:07:06;;;;;;;0.90;0.90;;;8.90;99.90;;;;;;5035378;28;20658;-67
2023/01/07 03:09:41;;;;;;;0.57;0.57;;;8.90;99.90;;;;;;5050106;28;20632;-67
2023/01/07 03:12:15;;;;;;;0.70;0.60;;;8.80;99.90;;;;;;5034044;28;21055;-67
2023/01/07 03:14:47;;;;;;;0.60;0.60;;;8.90;99.90;;;;;;5049647;28;20630;-67
2023/01/07 03:17:19;;;;;;;0.50;0.50;;;8.90;99.90;;;;;;5049801;28;20622;-67
2023/01/07 03:19:53;;;;;;;0.40;0.40;;;8.90;99.90;;;;;;5049799;28;20641;-68
2023/01/07 03:22:24;;;;;;;0.90;0.90;;;8.80;99.90;;;;;;5049491;28;20629;-67
2023/01/07 03:24:56;;;;;;;0.50;0.40;;;8.80;99.90;;;;;;5049832;28;20626;-68
2023/01/07 03:27:27;;;;;;;0.40;0.40;;;8.80;99.90;;;;;;5048905;28;20658;-68
2023/01/07 03:29:56;;;;;;;0.47;0.47;;;8.80;99.90;;;;;;5050064;28;20958;-67
2023/01/07 03:32:29;;;;;;;0.50;0.50;;;8.80;99.90;;;;;;5048637;28;20634;-67
2023/01/07 03:34:59;;;;;;;0.40;0.40;;;8.90;99.90;;;;;;5049156;28;20685;-67
2023/01/07 03:37:28;;;;;;;0.60;0.60;;;8.90;99.90;;;;;;5048767;28;21029;-68
2023/01/07 03:39:56;;;;;;;1.23;0.43;;;8.90;99.90;;;;;;5049374;28;20725;-67
2023/01/07 03:45:11;;;;;;;1.90;0.40;;;8.90;99.90;;;;;;5048640;28;20638;-67
2023/01/07 03:47:42;;;;;;;0.77;0.77;;;8.80;99.90;;;;;;5048693;28;20993;-67
2023/01/07 03:50:12;;;;;;;0.93;0.50;;;8.80;99.90;;;;;;5048959;28;20621;-67
2023/01/07 03:52:40;;;;;;;0.93;0.60;;;8.80;99.90;;;;;;5048447;28;20632;-67
2023/01/07 03:55:08;;;;;;;0.57;0.57;;;8.80;99.90;;;;;;5049379;28;21274;-67
2023/01/07 03:57:37;;;;;;;0.60;0.60;;;8.80;99.90;;;;;;5048591;28;20993;-67
2023/01/07 04:00:06;;;;;;;0.67;0.50;;;8.80;99.90;;;;;;5033847;28;20635;-67
2023/01/07 04:02:35;;;;;;;0.80;0.77;;;8.80;99.90;;;;;;5047419;28;20645;-68
2023/01/07 04:05:03;;;;;;;0.40;0.30;;;8.80;99.90;;;;;;5049200;28;20627;-68
2023/01/07 04:07:33;;;;;;;0.60;0.60;;;8.80;99.90;;;;;;5048922;28;20650;-68
2023/01/07 04:10:01;;;;;;;0.50;0.50;;;8.70;99.90;;;;;;5048816;28;20642;-67
2023/01/07 04:12:29;;;;;;;0.77;0.77;;;8.80;99.90;;;;;;5048318;28;20670;-68
2023/01/07 04:14:57;;;;;;;0.80;0.80;;;8.80;99.90;;;;;;5048796;28;20618;-68
2023/01/07 04:17:26;;;;;;;0.80;0.80;;;8.90;99.90;;;;;;5048878;28;20662;-68
2023/01/07 04:19:57;;;;;;;0.67;0.67;;;8.80;99.90;;;;;;5048866;28;21112;-67
2023/01/07 04:22:25;;;;;;;0.63;0.63;;;8.80;99.90;;;;;;5047899;28;20634;-68
2023/01/07 04:24:53;;;;;;;0.73;0.70;;;8.80;99.90;;;;;;5048740;28;20699;-68
2023/01/07 04:27:20;;;;;;;1.03;1.03;;;8.80;99.90;;;;;;5048115;28;20660;-68
2023/01/07 04:29:46;;;;;;;0.73;0.60;;;8.70;99.90;;;;;;5047168;28;20635;-68
2023/01/07 04:32:13;;;;;;;2.00;1.03;;;8.80;99.90;;;;;;5047969;28;20631;-67
2023/01/07 04:34:40;;;;;;;1.90;0.73;;;8.70;99.90;;;;;;5048470;28;20632;-67
2023/01/07 04:37:07;;;;;;;0.90;0.90;;;8.70;99.90;;;;;;5048289;28;20649;-68
2023/01/07 04:39:33;;;;;;;0.73;0.73;;;8.70;99.90;;;;;;5047483;28;20623;-68
2023/01/07 04:42:02;;;;;;;0.77;0.77;;;8.70;99.90;;;;;;5048059;28;20653;-67
2023/01/07 04:44:28;;;;;;;2.10;1.20;;;8.70;99.90;;;;;;5047941;28;20712;-67
2023/01/07 04:46:55;;;;;;;1.43;0.53;;;8.70;99.90;;;;;;5048720;28;20621;-68
2023/01/07 04:49:22;;;;;;;0.90;0.63;;;8.80;99.90;;;;;;5047994;28;20680;-69
2023/01/07 04:51:49;;;;;;;0.90;0.80;;;10.30;99.90;;;;;;5041720;28;20623;-68
2023/01/07 04:54:15;;;;;;;0.80;0.47;;;8.70;99.90;;;;;;5036314;28;21243;-68
2023/01/07 04:56:42;;;;;;;1.03;0.73;;;8.70;99.90;;;;;;5030085;28;21051;-67
2023/01/07 04:59:10;;;;;;;0.70;0.70;;;8.80;99.90;;;;;;5047085;28;21196;-68
2023/01/07 05:01:37;;;;;;;0.73;0.73;;;8.70;99.90;;;;;;5047186;28;20994;-67
2023/01/07 05:04:04;;;;;;;0.80;0.77;;;8.80;99.90;;;;;;5047642;28;20630;-68
2023/01/07 05:06:31;;;;;;;0.73;0.73;;;8.70;99.90;;;;;;5047811;28;20638;-67
2023/01/07 05:08:58;;;;;;;1.13;0.90;;;8.70;99.90;;;;;;5047768;28;20681;-67
2023/01/07 05:11:25;;;;;;;0.77;0.77;;;8.70;99.90;;;;;;5046924;28;20635;-67
2023/01/07 05:13:52;;;;;;;1.33;1.00;;;8.80;99.90;;;;;;5047857;28;20630;-68
2023/01/07 05:16:20;;;;;;;0.80;0.43;;;8.80;99.90;;;;;;5047089;28;20669;-68
2023/01/07 05:18:47;;;;;;;1.23;0.70;;;8.70;99.90;;;;;;5047780;28;21178;-68
2023/01/07 05:21:13;;;;;;;2.20;1.20;;;8.70;99.90;;;;;;5046798;28;20623;-67
2023/01/07 05:23:40;;;;;;;1.10;0.93;;;8.70;99.90;;;;;;5046715;28;20622;-68
2023/01/07 05:26:07;;;;;;;0.90;0.90;;;8.70;99.90;;;;;;5048059;28;21301;-67
2023/01/07 05:28:34;;;;;;;0.77;0.77;;;8.70;99.90;;;;;;5046677;28;20658;-67
2023/01/07 05:31:01;;;;;;;0.40;0.40;;;8.70;99.90;;;;;;5047579;28;20949;-69
2023/01/07 05:33:29;;;;;;;0.77;0.60;;;8.90;99.90;;;;;;5046789;28;20629;-67
2023/01/07 05:35:56;;;;;;;1.00;0.90;;;8.70;99.90;;;;;;5047376;28;20646;-68
2023/01/07 05:38:23;;;;;;;0.73;0.73;;;8.70;99.90;;;;;;5046865;28;20627;-67
2023/01/07 05:40:50;;;;;;;0.80;0.80;;;8.70;99.90;;;;;;5047083;28;21124;-68
2023/01/07 05:43:17;;;;;;;1.30;0.90;;;8.70;99.90;;;;;;5036566;28;20631;-67
2023/01/07 05:45:45;;;;;;;1.00;1.00;;;8.60;99.90;;;;;;5036339;28;20634;-67
2023/01/07 05:48:12;;;;;;;3.00;1.60;;;8.70;99.90;;;;;;5047474;28;20782;-68
2023/01/07 05:50:40;;;;;;;1.57;1.43;;;8.70;99.90;;;;;;5047561;28;21074;-68
2023/01/07 05:53:07;;;;;;;1.13;1.03;;;8.60;99.90;;;;;;5046138;28;20625;-67
2023/01/07 05:55:36;;;;;;;0.93;0.93;;;8.40;99.90;;;;;;5046870;28;20627;-67
2023/01/07 05:58:03;;;;;;;0.80;0.70;;;8.60;99.90;;;;;;5047386;28;20645;-68
2023/01/07 06:00:30;;;;;;;2.40;0.77;;;8.60;99.90;;;;;;5047393;28;20625;-68
2023/01/07 06:02:57;;;;;;;0.57;0.50;;;8.60;99.90;;;;;;5046564;28;20628;-68
2023/01/07 06:05:24;;;;;;;0.87;0.87;;;8.60;99.90;;;;;;5046367;28;20618;-68
2023/01/07 06:07:52;;;;;;;0.90;0.90;;;8.60;99.90;;;;;;5047004;28;20669;-68
2023/01/07 06:10:18;;;;;;;0.63;0.60;;;8.60;99.90;;;;;;5050010;28;20619;-69
2023/01/07 06:12:45;;;;;;;0.60;0.60;;;8.60;99.90;;;;;;5050657;28;20992;-68
2023/01/07 06:15:12;;;;;;;0.70;0.70;;;8.60;99.90;;;;;;5051099;28;20630;-68
2023/01/07 06:17:39;;;;;;;0.50;0.40;;;8.60;99.90;;;;;;5051318;28;20809;-68
2023/01/07 06:20:08;;;;;;;0.40;0.40;;;8.60;99.90;;;;;;5050971;28;20611;-68
2023/01/07 06:22:35;;;;;;;0.50;0.50;;;8.50;99.90;;;;;;5050426;28;20634;-69
2023/01/07 06:25:03;;;;;;;1.33;1.13;;;8.60;99.90;;;;;;5051060;28;20645;-68
2023/01/07 06:27:30;;;;;;;0.40;0.40;;;8.50;99.90;;;;;;5050106;28;21326;-69
2023/01/07 06:29:56;;;;;;;0.67;0.67;;;8.50;99.90;;;;;;5050537;28;21277;-68
2023/01/07 06:32:23;;;;;;;0.50;0.50;;;8.50;99.90;;;;;;5049806;28;20777;-69
2023/01/07 06:34:50;;;;;;;1.20;0.87;;;8.50;99.90;;;;;;5050658;28;20757;-68
2023/01/07 06:37:17;;;;;;;0.90;0.83;;;8.50;99.90;;;;;;5050591;28;20622;-68
2023/01/07 06:39:44;;;;;;;3.23;1.23;;;8.50;99.90;;;;;;5050558;28;20668;-67
2023/01/07 06:42:12;;;;;;;0.70;0.50;;;8.50;99.90;;;;;;5046442;28;20630;-68
2023/01/07 06:44:39;;;;;;;0.83;0.83;;;8.40;99.90;;;;;;5050129;28;20729;-68
2023/01/07 06:47:06;;;;;;;0.73;0.73;;;8.30;99.90;;;;;;5050104;28;20626;-69
2023/01/07 06:49:32;;;;;;;0.83;0.83;;;8.40;99.90;;;;;;5050727;28;20669;-68
2023/01/07 06:51:59;;;;;;;0.60;0.57;;;8.40;99.90;;;;;;5049876;28;20636;-68
2023/01/07 06:54:26;;;;;;;0.50;0.50;;;8.40;99.90;;;;;;5049954;28;20634;-69
2023/01/07 06:56:53;;;;;;;0.73;0.73;;;8.50;99.90;;;;;;5050410;28;20622;-68
2023/01/07 06:59:21;;;;;;;0.67;0.67;;;8.40;99.90;;;;;;5049670;28;20641;-68
2023/01/07 07:01:47;;;;;;;1.60;0.60;;;8.40;99.90;;;;;;5049137;28;20631;-68
2023/01/07 07:04:14;;;;;;;1.43;0.63;;;8.50;99.90;;;;;;5050662;28;20634;-68
2023/01/07 07:06:41;;;;;;;0.70;0.70;;;8.40;99.90;;;;;;5049860;28;21278;-68
2023/01/07 07:09:08;;;;;;;0.93;0.83;;;8.40;99.90;;;;;;5050477;28;20758;-68
2023/01/07 07:11:35;;;;;;;0.50;0.50;;;8.30;99.90;;;;;;5047178;28;21239;-69
2023/01/07 07:14:02;;;;;;;0.40;0.40;;;8.30;99.90;;;;;;5044024;28;20713;-69
2023/01/07 07:16:31;;;;;;;1.83;1.40;;;8.20;99.90;;;;;;5038251;28;20774;-67
2023/01/07 07:18:57;;;;;;;0.87;0.87;;;8.20;99.90;;;;;;5041352;28;20625;-68
2023/01/07 07:21:24;;;;;;;0.50;0.50;;;8.30;99.90;;;;;;5037468;28;20614;-69
2023/01/07 07:23:51;;;;;;;0.43;0.37;;;8.30;99.90;;;;;;5039313;28;20626;-68
2023/01/07 07:26:18;;;;;;;0.50;0.47;;;8.30;99.50;;;;;;5035984;28;20623;-68
2023/01/07 07:28:44;;;;;;;0.37;0.30;;;8.30;99.50;;;;;;5047985;28;20668;-68
2023/01/07 07:31:11;;;;;;;0.47;0.47;;;8.20;99.90;;;;;;5049520;28;20713;-68
2023/01/07 07:33:39;;;;;;;0.77;0.40;;;8.20;99.90;;;;;;5049265;28;20626;-68
2023/01/07 07:36:07;;;;;;;1.00;0.63;;;8.20;99.90;;;;;;5048978;28;20638;-70
2023/01/07 07:38:33;;;;;;;0.50;0.50;;;8.30;99.90;;;;;;5047379;28;21187;-68
2023/01/07 07:41:01;;;;;;;0.50;0.50;;;8.20;99.90;;;;;;5047128;28;20984;-68
2023/01/07 07:43:27;;;;;;;2.40;0.80;;;8.20;99.90;;;;;;5047961;28;20630;-68
2023/01/07 07:45:54;;;;;;;1.23;0.40;;;8.40;99.90;;;;;;5049784;28;21378;-68
2023/01/07 07:48:21;;;;;;;0.50;0.43;;;8.30;99.90;;;;;;5048822;28;21231;-68
2023/01/07 07:50:51;;;;;;;0.90;0.60;;;8.30;99.90;;;;;;5049062;28;21202;-68
2023/01/07 07:53:18;;;;;;;0.77;0.77;;;8.30;99.90;;;;;;5048464;28;20641;-68
2023/01/07 07:55:45;;;;;;;0.77;0.70;;;8.30;99.90;;;;;;5044366;28;20607;-68
2023/01/07 07:58:12;;;;;;;0.60;0.60;;;8.20;99.90;;;;;;5044602;28;20634;-68
2023/01/07 08:00:40;;;;;;;0.40;0.30;;;8.30;99.90;;;;;;5048572;28;20634;-67
2023/01/07 08:03:07;;;;;;;0.50;0.50;;;8.30;99.90;;;;;;5048398;28;20614;-67
2023/01/07 08:05:33;;;;;;;0.80;0.57;;;8.30;99.90;;;;;;5048808;28;20637;-69
2023/01/07 08:08:02;;;;;;;0.30;0.30;;;8.30;99.90;;;;;;5048913;28;20657;-67
2023/01/07 08:10:29;;;;;;;0.50;0.50;;;8.30;99.90;;;;;;5048166;28;20666;-67
2023/01/07 08:12:56;;;;;;;0.93;0.90;;;8.30;99.90;;;;;;5048119;28;20630;-67
2023/01/07 08:15:23;;;;;;;0.63;0.63;;;8.30;99.90;;;;;;5048685;28;20606;-69
2023/01/07 08:17:57;;;;;;;0.60;0.60;;;8.30;99.90;;;;;;5048713;28;21222;-68
2023/01/07 08:20:24;;;;;;;0.50;0.50;;;8.40;99.90;;;;;;5048912;28;21028;-68
2023/01/07 08:22:50;;;;;;;0.60;0.50;;;8.30;99.90;;;;;;5047432;28;20722;-68
2023/01/07 08:25:19;;;;;;;6.63;1.93;;;8.30;99.90;;;;;;5048847;28;21209;-68
2023/01/07 08:27:45;;;;;;;0.80;0.80;;;8.40;99.90;;;;;;5048263;28;20753;-68
2023/01/07 08:30:12;;;;;;;0.67;0.67;;;8.50;99.90;;;;;;5048712;28;21216;-68
2023/01/07 08:32:39;;;;;;;0.90;0.90;;;8.50;99.90;;;;;;5046503;28;21299;-68
2023/01/07 08:35:07;;;;;;;1.63;1.10;;;8.40;99.90;;;;;;5048180;28;20645;-68
2023/01/07 08:37:34;;;;;;;2.70;0.70;;;8.40;99.90;;;;;;5048414;28;20700;-68
2023/01/07 08:40:02;;;;;;;0.60;0.53;;;8.40;99.90;;;;;;5048535;28;21030;-69
2023/01/07 08:42:31;;;;;;;0.80;0.70;;;8.50;99.80;;;;;;5047438;28;20952;-68
2023/01/07 08:44:57;;;;;;;0.80;0.40;;;8.50;99.90;;;;;;5048659;28;20632;-68
2023/01/07 08:47:26;;;;;;;1.67;1.00;;;8.50;99.90;;;;;;5047746;28;20642;-68
2023/01/07 08:49:53;;;;;;;4.10;1.07;;;8.30;99.90;;;;;;5047851;28;21111;-68
2023/01/07 08:52:20;;;;;;;0.80;0.80;;;8.50;99.80;;;;;;5047461;28;20630;-68
2023/01/07 08:54:47;;;;;;;1.42;0.80;;;8.50;99.70;;;;;;5046782;28;20795;-68
2023/01/07 08:57:14;;;;;;;1.13;0.67;;;8.50;99.80;;;;;;5047813;28;20208;-68
2023/01/07 08:59:43;;;;;;;2.20;1.90;;;8.60;99.90;;;;;;5047000;28;20755;-67
2023/01/07 09:02:12;;;;;;;3.10;1.60;;;8.60;99.90;;;;;;5046198;28;21130;-68
2023/01/07 09:04:39;;;;;;;1.53;1.43;;;8.60;99.90;;;;;;5046227;28;20250;-68
2023/01/07 09:07:06;;;;;;;0.60;0.60;;;8.60;99.90;;;;;;5046925;28;20632;-68
2023/01/07 09:09:33;;;;;;;1.33;1.23;;;8.70;99.90;;;;;;5047712;28;20681;-68
2023/01/07 09:12:00;;;;;;;1.20;1.10;;;8.70;99.40;;;;;;5046700;28;20627;-68
2023/01/07 09:14:27;;;;;;;1.30;1.20;;;8.70;99.60;;;;;;5047988;28;21470;-68
2023/01/07 09:16:55;;;;;;;0.90;0.90;;;8.80;99.50;;;;;;5047432;28;20633;-68
2023/01/07 09:19:22;;;;;;;0.70;0.70;;;8.80;99.40;;;;;;5047624;28;20653;-68
2023/01/07 09:21:50;;;;;;;1.10;0.90;;;8.90;99.70;;;;;;5047053;28;20638;-68
2023/01/07 09:24:17;;;;;;;1.00;1.00;;;9.00;99.20;;;;;;5047585;28;21025;-67
2023/01/07 09:26:44;;;;;;;1.17;0.87;;;9.00;98.90;;;;;;5047339;28;20990;-68
2023/01/07 09:29:10;;;;;;;1.43;1.10;;;8.90;99.10;;;;;;5047481;28;20775;-68
2023/01/07 09:31:37;;;;;;;0.90;0.70;;;9.00;99.30;;;;;;5046387;28;21096;-69
2023/01/07 09:34:06;;;;;;;1.30;1.20;;;9.00;99.50;;;;;;5047737;28;20634;-68
2023/01/07 09:36:32;;;;;;;1.10;1.00;;;9.00;99.10;;;;;;5047524;28;20642;-68
2023/01/07 09:38:59;;;;;;;0.50;0.47;;;9.10;99.20;;;;;;5046950;28;20637;-68
2023/01/07 09:41:36;;;;;;;1.57;1.20;;;9.10;99.50;;;;;;5047108;28;20994;-68
2023/01/07 09:44:13;;;;;;;1.77;0.80;;;9.20;99.20;;;;;;5030314;28;20616;-69
2023/01/07 09:46:40;;;;;;;1.23;1.13;;;9.30;99.00;;;;;;5034464;28;20625;-68
2023/01/07 09:49:17;;;;;;;1.40;1.03;;;9.30;99.10;;;;;;5047186;28;20663;-68
2023/01/07 09:51:49;;;;;;;1.37;1.27;;;9.30;98.80;;;;;;5046837;28;20713;-68
2023/01/07 09:54:25;;;;;;;1.93;0.87;;;9.30;98.30;;;;;;5047238;28;20630;-68
2023/01/07 09:56:51;;;;;;;1.43;1.33;;;9.20;98.90;;;;;;5046758;28;20637;-68
2023/01/07 09:59:19;;;;;;;1.27;1.20;;;9.30;99.00;;;;;;5046987;28;20629;-68
2023/01/07 10:01:53;;;;;;;2.20;1.70;;;9.30;99.20;;;;;;5046368;28;20622;-68
2023/01/07 10:04:33;;;;;;;0.93;0.93;;;9.40;99.10;;;;;;5032496;28;20661;-68
2023/01/07 10:07:20;;;;;;;1.20;1.10;;;9.40;98.50;;;;;;5047161;28;20634;-68
2023/01/07 10:09:58;;;;;;;1.60;1.50;;;9.40;97.70;;;;;;5046166;28;21255;-69
2023/01/07 10:12:33;;;;;;;1.03;1.03;;;9.40;97.70;;;;;;5046391;28;21191;-68
2023/01/07 10:15:28;;;;;;;2.10;1.50;;;9.30;97.40;;;;;;5047153;28;20638;-68
2023/01/07 10:18:14;;;;;;;3.20;1.97;;;9.40;97.80;;;;;;5039996;28;20634;-68
2023/01/07 10:20:48;;;;;;;1.07;0.97;;;9.40;97.50;;;;;;5047288;28;20632;-68
2023/01/07 10:23:22;;;;;;;0.83;0.83;;;9.30;97.60;;;;;;5047170;28;20657;-68
2023/01/07 10:25:52;;;;;;;1.77;1.67;;;9.30;97.80;;;;;;5046397;28;20709;-68
2023/01/07 10:28:22;;;;;;;1.90;1.33;;;9.30;97.40;;;;;;5046630;28;20626;-68
2023/01/07 10:30:51;;;;;;;1.33;1.23;;;9.30;97.40;;;;;;5046536;28;20666;-71
2023/01/07 10:33:23;;;;;;;1.67;1.50;;;9.30;97.70;;;;;;5046352;28;20721;-68
2023/01/07 10:36:04;;;;;;;1.40;1.33;;;9.30;97.70;;;;;;5045986;28;20649;-68
2023/01/07 10:38:35;;;;;;;1.57;1.23;;;9.40;97.80;;;;;;5045118;28;21380;-69
2023/01/07 10:41:07;;;;;;;1.10;1.00;;;9.40;97.80;;;;;;5044753;28;20753;-69
2023/01/07 10:43:47;;;;;;;0.80;0.80;;;9.40;97.40;;;;;;5040259;28;21282;-68
2023/01/07 10:46:38;;;;;;;1.93;1.83;;;9.50;97.20;;;;;;5045398;28;21168;-69
2023/01/07 10:49:35;;;;;;;2.10;1.70;;;9.50;99.90;;;;;;5045750;28;20752;-68
2023/01/07 10:52:31;;;;;;;2.47;1.80;;;9.50;97.60;;;;;;5042725;28;20954;-69
2023/01/07 10:55:17;;;;;;;2.13;1.93;;;9.50;97.50;;;;;;5042471;28;20715;-69
2023/01/07 10:57:47;;;;;;;3.13;1.50;;;9.50;97.70;;;;;;5048471;28;20626;-68
2023/01/07 11:00:16;;;;;;;2.03;1.83;;;9.60;97.40;;;;;;5047718;28;20626;-68
2023/01/07 11:02:46;;;;;;;1.27;1.10;;;9.50;97.70;;;;;;5039237;28;20641;-68
2023/01/07 11:05:13;;;;;;;2.43;1.93;;;9.50;98.00;;;;;;5049852;28;20614;-68
2023/01/07 11:07:44;;;;;;;2.17;1.67;;;9.50;98.00;;;;;;5048200;28;21357;-68
2023/01/07 11:10:15;;;;;;;5.80;2.10;;;9.50;97.70;;;;;;5048718;28;20673;-69
2023/01/07 11:13:18;;;;;;;3.30;1.37;;;9.60;99.90;;;;;;5048471;28;20746;-70
2023/01/07 11:15:52;;;;;;;2.23;2.03;;;9.70;97.80;;;;;;5048049;28;20680;-69
2023/01/07 11:18:24;;;;;;;2.20;2.00;;;9.60;97.50;;;;;;5048836;28;21372;-70
2023/01/07 11:20:53;;;;;;;1.93;1.83;;;9.60;97.50;;;;;;5048179;28;20198;-70
2023/01/07 11:23:29;;;;;;;2.10;1.40;;;9.70;97.70;;;;;;5048185;28;20717;-69
2023/01/07 11:26:12;;;;;;;3.03;2.27;;;9.70;97.90;;;;;;5048717;28;20629;-68
2023/01/07 11:28:46;;;;;;;2.20;2.10;;;9.60;97.50;;;;;;5049300;28;20630;-68
2023/01/07 11:31:13;;;;;;;1.90;1.40;;;9.60;97.50;;;;;;5049242;28;20672;-68
2023/01/07 11:33:45;;;;;;;1.50;1.40;;;9.70;97.40;;;;;;5049394;28;20621;-68
2023/01/07 11:36:13;;;;;;;1.97;1.87;;;9.70;97.70;;;;;;5049913;28;20630;-69
2023/01/07 11:38:41;;;;;;;4.17;1.97;;;9.70;97.50;;;;;;5049100;28;20630;-69
2023/01/07 11:41:20;;;;;;;2.40;1.40;;;9.70;97.20;;;;;;5049109;28;20629;-68
2023/01/07 11:43:49;;;;;;;3.37;1.50;;;9.70;97.20;;;;;;5048471;28;20995;-68
2023/01/07 11:46:18;;;;;;;2.70;2.10;;;9.80;97.00;;;;;;5049319;28;21236;-68
2023/01/07 11:48:51;;;;;;;2.37;2.17;;;9.70;97.20;;;;;;5049146;28;21012;-68
2023/01/07 11:51:20;;;;;;;1.73;1.23;;;9.80;97.20;;;;;;5048348;28;21261;-68
2023/01/07 11:53:55;;;;;;;1.70;1.50;;;9.80;97.20;;;;;;5049439;28;20629;-69
2023/01/07 11:56:28;;;;;;;2.20;2.10;;;9.80;97.10;;;;;;5049482;28;20629;-68
2023/01/07 11:59:25;;;;;;;2.73;2.53;;;9.80;97.00;;;;;;5041792;28;21212;-68
2023/01/07 12:01:54;;;;;;;2.20;2.00;;;9.80;97.30;;;;;;5031215;28;20634;-69
2023/01/07 12:04:23;;;;;;;4.40;2.60;;;9.70;97.20;;;;;;5048988;28;20626;-67
2023/01/07 12:06:52;;;;;;;3.33;1.83;;;9.70;97.30;;;;;;5048336;28;21238;-68
2023/01/07 12:09:35;;;;;;;3.40;2.60;;;9.80;97.00;;;;;;5049321;28;20638;-68
2023/01/07 12:12:30;;;;;;;1.60;0.87;;;9.80;97.10;;;;;;5048199;28;20634;-68
2023/01/07 12:14:58;;;;;;;3.27;1.50;;;9.90;97.00;;;;;;5029298;28;20689;-68
2023/01/07 12:17:27;;;;;;;2.10;2.00;;;9.90;96.40;;;;;;5048278;28;20618;-68
2023/01/07 12:20:03;;;;;;;2.50;2.20;;;9.90;96.80;;;;;;5049045;28;20641;-68
2023/01/07 12:22:41;;;;;;;2.60;1.80;;;9.90;96.70;;;;;;5047834;28;20754;-69
2023/01/07 12:25:22;;;;;;;0.87;0.67;;;10.00;96.00;;;;;;5048929;28;20626;-68
2023/01/07 12:27:59;;;;;;;2.30;1.53;;;10.00;96.20;;;;;;5048789;28;20626;-69
2023/01/07 12:30:48;;;;;;;1.67;1.57;;;10.00;96.30;;;;;;5048831;28;21009;-68
2023/01/07 12:33:26;;;;;;;2.97;1.60;;;9.90;97.10;;;;;;5048001;28;20634;-68
2023/01/07 12:35:55;;;;;;;1.23;1.13;;;9.90;96.90;;;;;;5047990;28;20646;-68
2023/01/07 12:38:28;;;;;;;2.43;1.80;;;9.90;97.10;;;;;;5048206;28;20614;-68
2023/01/07 12:41:01;;;;;;;2.37;2.00;;;9.90;96.80;;;;;;5048126;28;20621;-68
2023/01/07 12:43:33;;;;;;;1.77;1.63;;;9.50;99.90;;;;;;5046423;28;20645;-68
2023/01/07 12:46:02;;;;;;;2.03;1.83;;;9.90;97.10;;;;;;5048933;28;20729;-69
2023/01/07 12:48:39;;;;;;;1.70;1.60;;;9.90;97.00;;;;;;5047826;28;20625;-68
2023/01/07 12:51:15;;;;;;;1.77;1.20;;;10.00;96.10;;;;;;5047771;28;21019;-68
2023/01/07 12:53:46;;;;;;;2.63;2.23;;;10.00;95.80;;;;;;5047843;28;20632;-68
2023/01/07 12:56:18;;;;;;;2.00;1.80;;;10.00;95.90;;;;;;5048576;28;20625;-68
2023/01/07 12:58:51;;;;;;;2.83;2.63;;;10.00;95.60;;;;;;5047722;28;20614;-68
2023/01/07 13:01:28;;;;;;;2.30;1.43;;;10.00;95.70;;;;;;5047750;28;20627;-69
2023/01/07 13:04:06;;;;;;;2.00;1.37;;;10.00;95.70;;;;;;5040838;28;20627;-68
2023/01/07 13:06:44;;;;;;;1.40;1.30;;;10.00;95.60;;;;;;5047686;28;20976;-68
2023/01/07 13:09:26;;;;;;;1.97;1.80;;;10.00;95.60;;;;;;5048057;28;20737;-68
2023/01/07 13:14:50;;;;;;;1.97;1.20;;;10.00;95.70;;;;;;5047411;28;20599;-69
2023/01/07 13:17:20;;;;;;;1.60;1.50;;;10.30;99.60;;;;;;5047046;28;20657;-68
2023/01/07 13:19:47;;;;;;;2.57;1.50;;;10.00;95.80;;;;;;5047041;28;21208;-68
2023/01/07 13:22:19;;;;;;;2.13;1.63;;;10.00;95.40;;;;;;5047465;28;20737;-68